sensor_id;sensor_type;location;lat;lon;timestamp;temperature;humidity
13464;DHT22;6804;48.774;9.174;2023-07-31T00:00:29;18.80;99.90
13464;DHT22;6804;48.774;9.174;2023-07-31T00:03:02;18.70;99.90
13464;DHT22;6804;48.774;9.174;2023-07-31T00:05:33;18.70;99.90
13464;DHT22;6804;48.774;9.174;2023-07-31T00:08:03;18.70;99.90
13464;DHT22;6804;48.774;9.174;2023-07-31T00:10:30;18.70;99.90
13464;DHT22;6804;48.774;9.174;2023-07-31T00:13:01;18.70;99.90
13464;DHT22;6804;48.774;9.174;2023-07-31T00:15:30;18.70;99.90
13464;DHT22;6804;48.774;9.174;2023-07-31T00:17:58;18.60;99.90
13464;DHT22;6804;48.774;9.174;2023-07-31T00:20:26;18.60;99.90
13464;DHT22;6804;48.774;9.174;2023-07-31T00:22:54;18.60;99.90
13464;DHT22;6804;48.774;9.174;2023-07-31T00:25:23;18.60;99.90
13464;DHT22;6804;48.774;9.174;2023-07-31T00:28:10;18.60;99.90
13464;DHT22;6804;48.774;9.174;2023-07-31T00:30:37;18.50;99.90
13464;DHT22;6804;48.774;9.174;2023-07-31T00:33:05;18.50;99.90
13464;DHT22;6804;48.774;9.174;2023-07-31T00:35:32;18.50;99.90
13464;DHT22;6804;48.774;9.174;2023-07-31T00:38:01;18.40;99.90
13464;DHT22;6804;48.774;9.174;2023-07-31T00:40:28;18.40;99.90
13464;DHT22;6804;48.774;9.174;2023-07-31T00:43:01;18.40;99.90
13464;DHT22;6804;48.774;9.174;2023-07-31T00:45:35;18.30;99.90
13464;DHT22;6804;48.774;9.174;2023-07-31T00:48:04;18.30;99.90
13464;DHT22;6804;48.774;9.174;2023-07-31T00:50:33;18.20;99.90
13464;DHT22;6804;48.774;9.174;2023-07-31T00:53:26;18.20;99.90
13464;DHT22;6804;48.774;9.174;2023-07-31T00:55:54;18.10;99.90
13464;DHT22;6804;48.774;9.174;2023-07-31T00:58:22;18.20;99.90
13464;DHT22;6804;48.774;9.174;2023-07-31T01:00:51;18.10;99.90
13464;DHT22;6804;48.774;9.174;2023-07-31T01:03:38;18.10;99.90
13464;DHT22;6804;48.774;9.174;2023-07-31T01:06:15;18.00;99.90
13464;DHT22;6804;48.774;9.174;2023-07-31T01:08:54;18.00;99.90
13464;DHT22;6804;48.774;9.174;2023-07-31T01:11:45;18.00;99.90
13464;DHT22;6804;48.774;9.174;2023-07-31T01:14:15;18.00;99.90
13464;DHT22;6804;48.774;9.174;2023-07-31T01:16:44;18.00;99.90
13464;DHT22;6804;48.774;9.174;2023-07-31T01:19:14;17.90;99.90
13464;DHT22;6804;48.774;9.174;2023-07-31T01:25:05;17.90;99.90
13464;DHT22;6804;48.774;9.174;2023-07-31T01:28:01;17.90;99.90
13464;DHT22;6804;48.774;9.174;2023-07-31T01:30:32;17.90;99.90
13464;DHT22;6804;48.774;9.174;2023-07-31T01:33:22;18.00;99.90
13464;DHT22;6804;48.774;9.174;2023-07-31T01:35:50;17.90;99.90
13464;DHT22;6804;48.774;9.174;2023-07-31T01:38:23;17.90;99.90
13464;DHT22;6804;48.774;9.174;2023-07-31T01:40:54;17.90;99.90
13464;DHT22;6804;48.774;9.174;2023-07-31T01:43:28;17.90;99.90
13464;DHT22;6804;48.774;9.174;2023-07-31T01:45:57;17.80;99.90
13464;DHT22;6804;48.774;9.174;2023-07-31T01:48:26;17.80;99.90
13464;DHT22;6804;48.774;9.174;2023-07-31T01:50:56;17.80;99.90
13464;DHT22;6804;48.774;9.174;2023-07-31T01:53:27;17.80;99.90
13464;DHT22;6804;48.774;9.174;2023-07-31T01:55:57;17.80;99.90
13464;DHT22;6804;48.774;9.174;2023-07-31T01:58:25;17.80;99.90
13464;DHT22;6804;48.774;9.174;2023-07-31T02:00:54;17.80;99.90
13464;DHT22;6804;48.774;9.174;2023-07-31T02:03:41;17.80;99.90
13464;DHT22;6804;48.774;9.174;2023-07-31T02:06:29;17.70;99.90
13464;DHT22;6804;48.774;9.174;2023-07-31T02:08:59;17.70;99.90
13464;DHT22;6804;48.774;9.174;2023-07-31T02:11:26;17.70;99.90
13464;DHT22;6804;48.774;9.174;2023-07-31T02:13:54;17.70;99.90
13464;DHT22;6804;48.774;9.174;2023-07-31T02:16:26;17.70;99.90
13464;DHT22;6804;48.774;9.174;2023-07-31T02:18:58;17.70;99.90
13464;DHT22;6804;48.774;9.174;2023-07-31T02:21:25;17.60;99.90
13464;DHT22;6804;48.774;9.174;2023-07-31T02:23:53;17.60;99.90
13464;DHT22;6804;48.774;9.174;2023-07-31T02:26:25;17.70;99.90
13464;DHT22;6804;48.774;9.174;2023-07-31T02:28:55;17.70;99.90
13464;DHT22;6804;48.774;9.174;2023-07-31T02:31:27;17.70;99.90
13464;DHT22;6804;48.774;9.174;2023-07-31T02:33:57;17.70;99.90
13464;DHT22;6804;48.774;9.174;2023-07-31T02:36:26;17.60;99.90
13464;DHT22;6804;48.774;9.174;2023-07-31T02:38:56;17.70;99.90
13464;DHT22;6804;48.774;9.174;2023-07-31T02:41:26;17.70;99.90
13464;DHT22;6804;48.774;9.174;2023-07-31T02:43:56;17.60;99.90
13464;DHT22;6804;48.774;9.174;2023-07-31T02:46:23;17.60;99.90
13464;DHT22;6804;48.774;9.174;2023-07-31T02:48:52;17.70;99.90
13464;DHT22;6804;48.774;9.174;2023-07-31T02:51:19;17.60;99.90
13464;DHT22;6804;48.774;9.174;2023-07-31T02:53:47;17.60;99.90
13464;DHT22;6804;48.774;9.174;2023-07-31T02:56:15;17.60;99.90
13464;DHT22;6804;48.774;9.174;2023-07-31T02:58:43;17.60;99.90
13464;DHT22;6804;48.774;9.174;2023-07-31T03:01:12;17.50;99.90
13464;DHT22;6804;48.774;9.174;2023-07-31T03:03:41;17.50;99.90
13464;DHT22;6804;48.774;9.174;2023-07-31T03:06:09;17.50;99.90
13464;DHT22;6804;48.774;9.174;2023-07-31T03:08:36;17.50;99.90
13464;DHT22;6804;48.774;9.174;2023-07-31T03:11:09;17.50;99.90
13464;DHT22;6804;48.774;9.174;2023-07-31T03:13:36;17.50;99.90
13464;DHT22;6804;48.774;9.174;2023-07-31T03:16:07;17.50;99.90
13464;DHT22;6804;48.774;9.174;2023-07-31T03:18:36;17.50;99.90
13464;DHT22;6804;48.774;9.174;2023-07-31T03:21:04;17.40;99.90
13464;DHT22;6804;48.774;9.174;2023-07-31T03:23:36;17.40;99.90
13464;DHT22;6804;48.774;9.174;2023-07-31T03:26:10;17.40;99.90
13464;DHT22;6804;48.774;9.174;2023-07-31T03:28:37;17.40;99.90
13464;DHT22;6804;48.774;9.174;2023-07-31T03:31:05;17.30;99.90
13464;DHT22;6804;48.774;9.174;2023-07-31T03:33:38;17.30;99.90
13464;DHT22;6804;48.774;9.174;2023-07-31T03:36:08;17.30;99.90
13464;DHT22;6804;48.774;9.174;2023-07-31T03:38:40;17.20;99.90
13464;DHT22;6804;48.774;9.174;2023-07-31T03:41:10;17.20;99.90
13464;DHT22;6804;48.774;9.174;2023-07-31T03:43:39;17.20;99.90
13464;DHT22;6804;48.774;9.174;2023-07-31T03:46:09;17.20;99.90
13464;DHT22;6804;48.774;9.174;2023-07-31T03:48:37;17.20;99.90
13464;DHT22;6804;48.774;9.174;2023-07-31T03:51:04;17.20;99.90
13464;DHT22;6804;48.774;9.174;2023-07-31T03:53:41;17.20;99.90
13464;DHT22;6804;48.774;9.174;2023-07-31T03:56:11;17.20;99.90
13464;DHT22;6804;48.774;9.174;2023-07-31T03:58:38;17.20;99.90
13464;DHT22;6804;48.774;9.174;2023-07-31T04:01:09;17.20;99.90
13464;DHT22;6804;48.774;9.174;2023-07-31T04:03:39;17.20;99.90
13464;DHT22;6804;48.774;9.174;2023-07-31T04:06:09;17.20;99.90
13464;DHT22;6804;48.774;9.174;2023-07-31T04:08:40;17.20;99.90
13464;DHT22;6804;48.774;9.174;2023-07-31T04:11:10;17.20;99.90
13464;DHT22;6804;48.774;9.174;2023-07-31T04:13:38;17.20;99.90
13464;DHT22;6804;48.774;9.174;2023-07-31T04:16:05;17.20;99.90
13464;DHT22;6804;48.774;9.174;2023-07-31T04:18:37;17.30;99.90
13464;DHT22;6804;48.774;9.174;2023-07-31T04:21:04;17.30;99.90
13464;DHT22;6804;48.774;9.174;2023-07-31T04:23:31;17.30;99.90
13464;DHT22;6804;48.774;9.174;2023-07-31T04:26:03;17.30;99.90
13464;DHT22;6804;48.774;9.174;2023-07-31T04:28:30;17.30;99.90
13464;DHT22;6804;48.774;9.174;2023-07-31T04:31:00;17.40;99.90
13464;DHT22;6804;48.774;9.174;2023-07-31T04:33:30;17.40;99.90
13464;DHT22;6804;48.774;9.174;2023-07-31T04:36:00;17.40;99.90
13464;DHT22;6804;48.774;9.174;2023-07-31T04:38:34;17.50;99.90
13464;DHT22;6804;48.774;9.174;2023-07-31T04:41:13;17.50;99.90
13464;DHT22;6804;48.774;9.174;2023-07-31T04:43:42;17.60;99.90
13464;DHT22;6804;48.774;9.174;2023-07-31T04:46:11;17.60;99.90
13464;DHT22;6804;48.774;9.174;2023-07-31T04:48:40;17.70;99.90
13464;DHT22;6804;48.774;9.174;2023-07-31T04:51:10;17.70;99.90
13464;DHT22;6804;48.774;9.174;2023-07-31T04:53:37;17.70;99.90
13464;DHT22;6804;48.774;9.174;2023-07-31T04:56:26;17.80;99.90
13464;DHT22;6804;48.774;9.174;2023-07-31T04:58:54;17.80;99.90
13464;DHT22;6804;48.774;9.174;2023-07-31T05:01:22;17.80;99.90
13464;DHT22;6804;48.774;9.174;2023-07-31T05:03:51;17.90;99.90
13464;DHT22;6804;48.774;9.174;2023-07-31T05:06:22;17.90;99.90
13464;DHT22;6804;48.774;9.174;2023-07-31T05:09:11;17.90;99.90
13464;DHT22;6804;48.774;9.174;2023-07-31T05:11:40;18.00;99.90
13464;DHT22;6804;48.774;9.174;2023-07-31T05:14:12;18.00;99.90
13464;DHT22;6804;48.774;9.174;2023-07-31T05:16:40;18.00;99.90
13464;DHT22;6804;48.774;9.174;2023-07-31T05:19:08;18.00;99.90
13464;DHT22;6804;48.774;9.174;2023-07-31T05:21:39;18.00;99.90
13464;DHT22;6804;48.774;9.174;2023-07-31T05:24:07;18.00;99.90
13464;DHT22;6804;48.774;9.174;2023-07-31T05:26:39;18.10;99.90
13464;DHT22;6804;48.774;9.174;2023-07-31T05:29:08;18.10;99.90
13464;DHT22;6804;48.774;9.174;2023-07-31T05:31:59;18.10;99.90
13464;DHT22;6804;48.774;9.174;2023-07-31T05:34:28;18.20;99.90
13464;DHT22;6804;48.774;9.174;2023-07-31T05:36:56;18.20;99.90
13464;DHT22;6804;48.774;9.174;2023-07-31T05:39:24;18.30;99.90
13464;DHT22;6804;48.774;9.174;2023-07-31T05:41:55;18.40;99.90
13464;DHT22;6804;48.774;9.174;2023-07-31T05:44:24;18.50;99.90
13464;DHT22;6804;48.774;9.174;2023-07-31T05:47:10;18.50;99.90
13464;DHT22;6804;48.774;9.174;2023-07-31T05:49:42;18.70;99.90
13464;DHT22;6804;48.774;9.174;2023-07-31T05:52:10;18.70;99.90
13464;DHT22;6804;48.774;9.174;2023-07-31T05:54:38;18.80;99.90
13464;DHT22;6804;48.774;9.174;2023-07-31T05:57:06;18.80;99.90
13464;DHT22;6804;48.774;9.174;2023-07-31T05:59:41;18.90;99.90
13464;DHT22;6804;48.774;9.174;2023-07-31T06:02:26;18.90;99.90
13464;DHT22;6804;48.774;9.174;2023-07-31T06:05:17;19.00;99.90
13464;DHT22;6804;48.774;9.174;2023-07-31T06:07:45;19.10;99.90
13464;DHT22;6804;48.774;9.174;2023-07-31T06:10:13;19.20;99.90
13464;DHT22;6804;48.774;9.174;2023-07-31T06:12:43;19.20;99.90
13464;DHT22;6804;48.774;9.174;2023-07-31T06:15:32;19.40;99.90
13464;DHT22;6804;48.774;9.174;2023-07-31T06:18:02;19.60;99.90
13464;DHT22;6804;48.774;9.174;2023-07-31T06:20:32;19.70;99.90
13464;DHT22;6804;48.774;9.174;2023-07-31T06:23:03;20.00;99.90
13464;DHT22;6804;48.774;9.174;2023-07-31T06:25:31;20.20;99.90
13464;DHT22;6804;48.774;9.174;2023-07-31T06:28:02;20.40;99.90
13464;DHT22;6804;48.774;9.174;2023-07-31T06:30:35;20.60;99.90
13464;DHT22;6804;48.774;9.174;2023-07-31T06:33:03;20.80;99.90
13464;DHT22;6804;48.774;9.174;2023-07-31T06:35:35;20.90;99.90
13464;DHT22;6804;48.774;9.174;2023-07-31T06:38:05;21.10;99.90
13464;DHT22;6804;48.774;9.174;2023-07-31T06:40:35;21.30;99.90
13464;DHT22;6804;48.774;9.174;2023-07-31T06:43:03;21.30;99.90
13464;DHT22;6804;48.774;9.174;2023-07-31T06:45:38;21.40;99.90
13464;DHT22;6804;48.774;9.174;2023-07-31T06:48:17;21.20;99.90
13464;DHT22;6804;48.774;9.174;2023-07-31T06:50:45;21.20;99.90
13464;DHT22;6804;48.774;9.174;2023-07-31T06:53:15;21.30;99.90
13464;DHT22;6804;48.774;9.174;2023-07-31T06:55:45;21.40;99.90
13464;DHT22;6804;48.774;9.174;2023-07-31T06:58:14;21.40;99.90
13464;DHT22;6804;48.774;9.174;2023-07-31T07:00:46;21.50;99.90
13464;DHT22;6804;48.774;9.174;2023-07-31T07:03:18;21.60;99.90
13464;DHT22;6804;48.774;9.174;2023-07-31T07:05:55;21.70;99.90
13464;DHT22;6804;48.774;9.174;2023-07-31T07:08:26;21.70;99.90
13464;DHT22;6804;48.774;9.174;2023-07-31T07:10:53;21.70;99.90
13464;DHT22;6804;48.774;9.174;2023-07-31T07:13:25;21.60;99.90
13464;DHT22;6804;48.774;9.174;2023-07-31T07:15:57;21.70;99.90
13464;DHT22;6804;48.774;9.174;2023-07-31T07:18:25;21.70;99.90
13464;DHT22;6804;48.774;9.174;2023-07-31T07:20:54;21.70;99.90
13464;DHT22;6804;48.774;9.174;2023-07-31T07:23:26;21.90;99.90
13464;DHT22;6804;48.774;9.174;2023-07-31T07:25:55;21.90;99.90
13464;DHT22;6804;48.774;9.174;2023-07-31T07:28:26;22.00;99.90
13464;DHT22;6804;48.774;9.174;2023-07-31T07:30:56;22.20;99.90
13464;DHT22;6804;48.774;9.174;2023-07-31T07:33:27;22.30;99.90
13464;DHT22;6804;48.774;9.174;2023-07-31T07:35:59;22.40;99.90
13464;DHT22;6804;48.774;9.174;2023-07-31T07:38:35;22.40;99.90
13464;DHT22;6804;48.774;9.174;2023-07-31T07:41:05;22.40;99.90
13464;DHT22;6804;48.774;9.174;2023-07-31T07:43:36;22.20;99.90
13464;DHT22;6804;48.774;9.174;2023-07-31T07:46:05;22.20;99.90
13464;DHT22;6804;48.774;9.174;2023-07-31T07:48:35;22.20;99.90
13464;DHT22;6804;48.774;9.174;2023-07-31T07:51:06;22.20;99.90
13464;DHT22;6804;48.774;9.174;2023-07-31T07:53:34;22.30;99.90
13464;DHT22;6804;48.774;9.174;2023-07-31T07:56:03;22.40;99.90
13464;DHT22;6804;48.774;9.174;2023-07-31T07:58:36;22.60;99.90
13464;DHT22;6804;48.774;9.174;2023-07-31T08:01:08;22.80;99.90
13464;DHT22;6804;48.774;9.174;2023-07-31T08:03:36;22.90;99.90
13464;DHT22;6804;48.774;9.174;2023-07-31T08:06:04;22.90;99.90
13464;DHT22;6804;48.774;9.174;2023-07-31T08:08:32;23.00;99.90
13464;DHT22;6804;48.774;9.174;2023-07-31T08:11:00;23.10;99.90
13464;DHT22;6804;48.774;9.174;2023-07-31T08:13:28;23.30;99.90
13464;DHT22;6804;48.774;9.174;2023-07-31T08:15:57;23.40;99.90
13464;DHT22;6804;48.774;9.174;2023-07-31T08:18:26;23.60;99.90
13464;DHT22;6804;48.774;9.174;2023-07-31T08:20:56;23.70;99.90
13464;DHT22;6804;48.774;9.174;2023-07-31T08:23:26;23.80;99.90
13464;DHT22;6804;48.774;9.174;2023-07-31T08:25:57;23.80;99.90
13464;DHT22;6804;48.774;9.174;2023-07-31T08:28:27;23.80;99.90
13464;DHT22;6804;48.774;9.174;2023-07-31T08:30:55;23.80;99.90
13464;DHT22;6804;48.774;9.174;2023-07-31T08:33:25;23.90;99.90
13464;DHT22;6804;48.774;9.174;2023-07-31T08:35:55;24.00;99.90
13464;DHT22;6804;48.774;9.174;2023-07-31T08:38:24;24.30;99.90
13464;DHT22;6804;48.774;9.174;2023-07-31T08:40:57;24.40;99.90
13464;DHT22;6804;48.774;9.174;2023-07-31T08:43:29;24.40;99.50
13464;DHT22;6804;48.774;9.174;2023-07-31T08:46:20;24.40;99.60
13464;DHT22;6804;48.774;9.174;2023-07-31T08:48:51;24.40;99.00
13464;DHT22;6804;48.774;9.174;2023-07-31T08:51:20;24.20;99.20
13464;DHT22;6804;48.774;9.174;2023-07-31T08:53:48;24.10;99.60
13464;DHT22;6804;48.774;9.174;2023-07-31T08:56:17;24.10;99.70
13464;DHT22;6804;48.774;9.174;2023-07-31T08:58:48;24.20;99.70
13464;DHT22;6804;48.774;9.174;2023-07-31T09:01:17;24.30;99.50
13464;DHT22;6804;48.774;9.174;2023-07-31T09:03:52;24.40;99.40
13464;DHT22;6804;48.774;9.174;2023-07-31T09:06:24;24.30;99.30
13464;DHT22;6804;48.774;9.174;2023-07-31T09:08:57;24.50;99.20
13464;DHT22;6804;48.774;9.174;2023-07-31T09:11:30;24.50;99.40
13464;DHT22;6804;48.774;9.174;2023-07-31T09:13:59;24.50;98.90
13464;DHT22;6804;48.774;9.174;2023-07-31T09:16:52;24.40;98.70
13464;DHT22;6804;48.774;9.174;2023-07-31T09:19:33;24.50;99.10
13464;DHT22;6804;48.774;9.174;2023-07-31T09:22:06;24.30;99.20
13464;DHT22;6804;48.774;9.174;2023-07-31T09:24:38;24.30;99.00
13464;DHT22;6804;48.774;9.174;2023-07-31T09:27:11;24.30;99.00
13464;DHT22;6804;48.774;9.174;2023-07-31T09:29:40;24.20;99.00
13464;DHT22;6804;48.774;9.174;2023-07-31T09:32:16;24.20;98.90
13464;DHT22;6804;48.774;9.174;2023-07-31T09:34:46;24.10;99.00
13464;DHT22;6804;48.774;9.174;2023-07-31T09:37:17;23.90;99.10
13464;DHT22;6804;48.774;9.174;2023-07-31T09:39:51;23.80;99.60
13464;DHT22;6804;48.774;9.174;2023-07-31T09:42:28;23.80;99.60
13464;DHT22;6804;48.774;9.174;2023-07-31T09:45:07;23.80;99.70
13464;DHT22;6804;48.774;9.174;2023-07-31T09:47:47;23.70;99.80
13464;DHT22;6804;48.774;9.174;2023-07-31T09:50:20;23.60;99.90
13464;DHT22;6804;48.774;9.174;2023-07-31T09:52:52;23.60;99.90
13464;DHT22;6804;48.774;9.174;2023-07-31T09:55:20;23.60;99.90
13464;DHT22;6804;48.774;9.174;2023-07-31T09:57:52;23.80;99.90
13464;DHT22;6804;48.774;9.174;2023-07-31T10:00:24;24.00;99.70
13464;DHT22;6804;48.774;9.174;2023-07-31T10:02:59;24.10;99.30
13464;DHT22;6804;48.774;9.174;2023-07-31T10:05:36;24.20;99.20
13464;DHT22;6804;48.774;9.174;2023-07-31T10:08:07;24.20;99.10
13464;DHT22;6804;48.774;9.174;2023-07-31T10:10:38;24.20;99.20
13464;DHT22;6804;48.774;9.174;2023-07-31T10:13:11;24.30;99.00
13464;DHT22;6804;48.774;9.174;2023-07-31T10:15:40;24.50;98.80
13464;DHT22;6804;48.774;9.174;2023-07-31T10:18:11;24.60;98.40
13464;DHT22;6804;48.774;9.174;2023-07-31T10:20:41;24.60;98.20
13464;DHT22;6804;48.774;9.174;2023-07-31T10:23:31;24.60;98.30
13464;DHT22;6804;48.774;9.174;2023-07-31T10:26:03;24.50;97.90
13464;DHT22;6804;48.774;9.174;2023-07-31T10:28:33;24.40;98.10
13464;DHT22;6804;48.774;9.174;2023-07-31T10:31:02;24.30;98.40
13464;DHT22;6804;48.774;9.174;2023-07-31T10:33:31;24.30;98.50
13464;DHT22;6804;48.774;9.174;2023-07-31T10:36:21;24.40;98.80
13464;DHT22;6804;48.774;9.174;2023-07-31T10:38:50;24.40;98.70
13464;DHT22;6804;48.774;9.174;2023-07-31T10:41:22;24.50;98.60
13464;DHT22;6804;48.774;9.174;2023-07-31T10:44:07;24.50;98.50
13464;DHT22;6804;48.774;9.174;2023-07-31T10:46:37;24.50;97.90
13464;DHT22;6804;48.774;9.174;2023-07-31T10:49:12;24.50;98.00
13464;DHT22;6804;48.774;9.174;2023-07-31T10:51:51;24.40;98.00
13464;DHT22;6804;48.774;9.174;2023-07-31T10:54:23;24.40;98.30
13464;DHT22;6804;48.774;9.174;2023-07-31T10:56:59;24.40;98.50
13464;DHT22;6804;48.774;9.174;2023-07-31T10:59:35;24.30;97.90
13464;DHT22;6804;48.774;9.174;2023-07-31T11:02:24;24.50;98.00
13464;DHT22;6804;48.774;9.174;2023-07-31T11:05:07;24.50;97.70
13464;DHT22;6804;48.774;9.174;2023-07-31T11:07:51;24.60;97.70
13464;DHT22;6804;48.774;9.174;2023-07-31T11:10:21;24.60;97.40
13464;DHT22;6804;48.774;9.174;2023-07-31T11:12:54;24.60;97.40
13464;DHT22;6804;48.774;9.174;2023-07-31T11:15:30;24.50;97.50
13464;DHT22;6804;48.774;9.174;2023-07-31T11:18:02;24.50;97.80
13464;DHT22;6804;48.774;9.174;2023-07-31T11:20:32;24.40;97.80
13464;DHT22;6804;48.774;9.174;2023-07-31T11:23:07;24.40;97.60
13464;DHT22;6804;48.774;9.174;2023-07-31T11:25:37;24.30;97.50
13464;DHT22;6804;48.774;9.174;2023-07-31T11:28:12;24.20;97.70
13464;DHT22;6804;48.774;9.174;2023-07-31T11:30:41;24.10;97.70
13464;DHT22;6804;48.774;9.174;2023-07-31T11:33:12;24.10;97.80
13464;DHT22;6804;48.774;9.174;2023-07-31T11:35:45;24.10;97.70
13464;DHT22;6804;48.774;9.174;2023-07-31T11:38:23;24.10;98.10
13464;DHT22;6804;48.774;9.174;2023-07-31T11:40:56;24.10;97.90
13464;DHT22;6804;48.774;9.174;2023-07-31T11:43:26;24.10;98.10
13464;DHT22;6804;48.774;9.174;2023-07-31T11:46:03;24.10;98.60
13464;DHT22;6804;48.774;9.174;2023-07-31T11:48:34;24.30;98.40
13464;DHT22;6804;48.774;9.174;2023-07-31T11:51:03;24.40;98.10
13464;DHT22;6804;48.774;9.174;2023-07-31T11:53:36;24.50;97.90
13464;DHT22;6804;48.774;9.174;2023-07-31T11:56:27;24.60;98.10
13464;DHT22;6804;48.774;9.174;2023-07-31T11:59:01;24.70;98.00
13464;DHT22;6804;48.774;9.174;2023-07-31T12:01:35;24.70;97.80
13464;DHT22;6804;48.774;9.174;2023-07-31T12:04:05;24.70;97.90
13464;DHT22;6804;48.774;9.174;2023-07-31T12:06:34;24.70;97.90
13464;DHT22;6804;48.774;9.174;2023-07-31T12:09:25;24.70;98.00
13464;DHT22;6804;48.774;9.174;2023-07-31T12:11:53;24.70;98.00
13464;DHT22;6804;48.774;9.174;2023-07-31T12:14:26;24.70;97.70
13464;DHT22;6804;48.774;9.174;2023-07-31T12:16:55;24.70;97.80
13464;DHT22;6804;48.774;9.174;2023-07-31T12:19:24;24.70;98.00
13464;DHT22;6804;48.774;9.174;2023-07-31T12:21:55;24.70;98.10
13464;DHT22;6804;48.774;9.174;2023-07-31T12:24:22;24.80;98.00
13464;DHT22;6804;48.774;9.174;2023-07-31T12:26:54;24.70;97.90
13464;DHT22;6804;48.774;9.174;2023-07-31T12:29:23;24.60;97.90
13464;DHT22;6804;48.774;9.174;2023-07-31T12:31:53;24.60;98.40
13464;DHT22;6804;48.774;9.174;2023-07-31T12:34:24;24.50;98.10
13464;DHT22;6804;48.774;9.174;2023-07-31T12:37:13;24.50;98.40
13464;DHT22;6804;48.774;9.174;2023-07-31T12:39:44;24.40;97.80
13464;DHT22;6804;48.774;9.174;2023-07-31T12:42:34;24.40;97.80
13464;DHT22;6804;48.774;9.174;2023-07-31T12:45:06;24.30;98.00
13464;DHT22;6804;48.774;9.174;2023-07-31T12:47:36;24.20;98.10
13464;DHT22;6804;48.774;9.174;2023-07-31T12:50:07;24.20;98.30
13464;DHT22;6804;48.774;9.174;2023-07-31T12:52:35;24.20;98.30
13464;DHT22;6804;48.774;9.174;2023-07-31T12:55:06;24.20;98.30
13464;DHT22;6804;48.774;9.174;2023-07-31T12:57:44;24.10;98.30
13464;DHT22;6804;48.774;9.174;2023-07-31T13:00:16;24.10;98.20
13464;DHT22;6804;48.774;9.174;2023-07-31T13:02:44;24.10;98.20
13464;DHT22;6804;48.774;9.174;2023-07-31T13:05:15;24.00;98.00
13464;DHT22;6804;48.774;9.174;2023-07-31T13:07:46;24.10;98.10
13464;DHT22;6804;48.774;9.174;2023-07-31T13:10:16;24.10;98.10
13464;DHT22;6804;48.774;9.174;2023-07-31T13:12:46;24.00;98.10
13464;DHT22;6804;48.774;9.174;2023-07-31T13:15:14;24.10;98.20
13464;DHT22;6804;48.774;9.174;2023-07-31T13:17:45;24.10;98.20
13464;DHT22;6804;48.774;9.174;2023-07-31T13:20:19;24.00;98.40
13464;DHT22;6804;48.774;9.174;2023-07-31T13:22:46;24.00;98.30
13464;DHT22;6804;48.774;9.174;2023-07-31T13:25:15;24.10;98.00
13464;DHT22;6804;48.774;9.174;2023-07-31T13:27:46;24.10;97.80
13464;DHT22;6804;48.774;9.174;2023-07-31T13:30:16;24.10;97.70
13464;DHT22;6804;48.774;9.174;2023-07-31T13:33:02;24.20;97.90
13464;DHT22;6804;48.774;9.174;2023-07-31T13:35:36;24.40;98.00
13464;DHT22;6804;48.774;9.174;2023-07-31T13:38:04;24.60;98.00
13464;DHT22;6804;48.774;9.174;2023-07-31T13:40:40;24.70;97.60
13464;DHT22;6804;48.774;9.174;2023-07-31T13:43:17;24.90;97.60
13464;DHT22;6804;48.774;9.174;2023-07-31T13:45:47;25.00;97.60
13464;DHT22;6804;48.774;9.174;2023-07-31T13:48:18;25.00;97.40
13464;DHT22;6804;48.774;9.174;2023-07-31T13:50:45;25.00;97.60
13464;DHT22;6804;48.774;9.174;2023-07-31T13:53:22;25.00;97.50
13464;DHT22;6804;48.774;9.174;2023-07-31T13:55:54;25.00;97.60
13464;DHT22;6804;48.774;9.174;2023-07-31T13:58:42;25.00;97.40
13464;DHT22;6804;48.774;9.174;2023-07-31T14:01:19;25.00;97.50
13464;DHT22;6804;48.774;9.174;2023-07-31T14:03:50;25.00;97.70
13464;DHT22;6804;48.774;9.174;2023-07-31T14:06:21;24.90;97.90
13464;DHT22;6804;48.774;9.174;2023-07-31T14:08:50;25.00;97.90
13464;DHT22;6804;48.774;9.174;2023-07-31T14:11:18;24.90;97.40
13464;DHT22;6804;48.774;9.174;2023-07-31T14:13:47;24.80;97.80
13464;DHT22;6804;48.774;9.174;2023-07-31T14:16:19;24.80;97.90
13464;DHT22;6804;48.774;9.174;2023-07-31T14:18:48;24.80;98.00
13464;DHT22;6804;48.774;9.174;2023-07-31T14:21:16;24.80;97.70
13464;DHT22;6804;48.774;9.174;2023-07-31T14:23:46;24.70;97.70
13464;DHT22;6804;48.774;9.174;2023-07-31T14:26:17;24.70;97.80
13464;DHT22;6804;48.774;9.174;2023-07-31T14:28:49;24.70;97.90
13464;DHT22;6804;48.774;9.174;2023-07-31T14:31:17;24.60;97.90
13464;DHT22;6804;48.774;9.174;2023-07-31T14:34:05;24.70;98.10
13464;DHT22;6804;48.774;9.174;2023-07-31T14:36:38;24.70;98.10
13464;DHT22;6804;48.774;9.174;2023-07-31T14:39:07;24.70;98.30
13464;DHT22;6804;48.774;9.174;2023-07-31T14:41:38;24.70;98.50
13464;DHT22;6804;48.774;9.174;2023-07-31T14:44:12;24.70;98.70
13464;DHT22;6804;48.774;9.174;2023-07-31T14:46:44;24.80;98.80
13464;DHT22;6804;48.774;9.174;2023-07-31T14:49:12;24.80;98.90
13464;DHT22;6804;48.774;9.174;2023-07-31T14:51:40;24.90;98.90
13464;DHT22;6804;48.774;9.174;2023-07-31T14:54:08;25.00;98.50
13464;DHT22;6804;48.774;9.174;2023-07-31T14:56:39;24.90;97.90
13464;DHT22;6804;48.774;9.174;2023-07-31T14:59:12;24.90;97.40
13464;DHT22;6804;48.774;9.174;2023-07-31T15:01:44;25.00;97.20
13464;DHT22;6804;48.774;9.174;2023-07-31T15:04:12;25.00;97.50
13464;DHT22;6804;48.774;9.174;2023-07-31T15:06:41;25.00;97.30
13464;DHT22;6804;48.774;9.174;2023-07-31T15:09:09;25.00;97.40
13464;DHT22;6804;48.774;9.174;2023-07-31T15:11:39;25.10;97.30
13464;DHT22;6804;48.774;9.174;2023-07-31T15:14:13;25.10;97.00
13464;DHT22;6804;48.774;9.174;2023-07-31T15:16:41;25.10;96.90
13464;DHT22;6804;48.774;9.174;2023-07-31T15:19:11;25.20;97.00
13464;DHT22;6804;48.774;9.174;2023-07-31T15:21:41;25.20;97.00
13464;DHT22;6804;48.774;9.174;2023-07-31T15:24:09;25.40;96.80
13464;DHT22;6804;48.774;9.174;2023-07-31T15:26:39;25.50;96.90
13464;DHT22;6804;48.774;9.174;2023-07-31T15:29:11;25.60;96.70
13464;DHT22;6804;48.774;9.174;2023-07-31T15:31:46;25.60;96.60
13464;DHT22;6804;48.774;9.174;2023-07-31T15:34:19;25.70;96.50
13464;DHT22;6804;48.774;9.174;2023-07-31T15:36:50;25.80;96.50
13464;DHT22;6804;48.774;9.174;2023-07-31T15:39:20;25.90;96.20
13464;DHT22;6804;48.774;9.174;2023-07-31T15:41:49;25.80;96.00
13464;DHT22;6804;48.774;9.174;2023-07-31T15:44:21;25.80;95.80
13464;DHT22;6804;48.774;9.174;2023-07-31T15:46:52;25.70;95.80
13464;DHT22;6804;48.774;9.174;2023-07-31T15:49:21;25.60;96.30
13464;DHT22;6804;48.774;9.174;2023-07-31T15:51:50;25.60;95.90
13464;DHT22;6804;48.774;9.174;2023-07-31T15:54:21;25.60;96.10
13464;DHT22;6804;48.774;9.174;2023-07-31T15:56:50;25.50;96.20
13464;DHT22;6804;48.774;9.174;2023-07-31T15:59:21;25.50;96.00
13464;DHT22;6804;48.774;9.174;2023-07-31T16:01:53;25.50;96.00
13464;DHT22;6804;48.774;9.174;2023-07-31T16:04:21;25.50;96.10
13464;DHT22;6804;48.774;9.174;2023-07-31T16:06:52;25.50;96.10
13464;DHT22;6804;48.774;9.174;2023-07-31T16:09:21;25.50;96.10
13464;DHT22;6804;48.774;9.174;2023-07-31T16:11:49;25.50;96.30
13464;DHT22;6804;48.774;9.174;2023-07-31T16:14:20;25.50;96.20
13464;DHT22;6804;48.774;9.174;2023-07-31T16:16:49;25.40;96.40